Time;durP1;ratioP1;P1;durP2;ratioP2;P2;SDS_P1;SDS_P2;PMS_P1;PMS_P2;Temp;Humidity;BMP_temperature;BMP_pressure;BME280_temperature;BME280_humidity;BME280_pressure;Samples;Min_cycle;Max_cycle;Signal;HPM_P1;HPM_P2
2022/09/06 00:01:50;;;;;;;;;;;16.10;99.90;;;;;;4905603;29;19997;-74
2022/09/06 00:04:16;;;;;;;;;;;16.10;99.90;;;;;;4922369;29;20371;-74
2022/09/06 00:06:41;;;;;;;;;;;16.00;99.90;;;;;;4923226;29;20359;-75
2022/09/06 00:09:07;;;;;;;;;;;16.00;99.90;;;;;;4920806;29;19921;-75
2022/09/06 00:11:32;;;;;;;;;;;16.00;99.90;;;;;;4922311;29;20003;-74
2022/09/06 00:13:58;;;;;;;;;;;16.00;99.90;;;;;;4923134;29;20298;-74
2022/09/06 00:16:23;;;;;;;;;;;15.90;99.90;;;;;;4922451;29;19942;-75
2022/09/06 00:18:53;;;;;;;;;;;16.00;99.90;;;;;;4920226;29;19923;-74
2022/09/06 00:21:22;;;;;;;;;;;16.00;99.90;;;;;;4919817;29;20287;-74
2022/09/06 00:23:48;;;;;;;;;;;15.90;99.90;;;;;;4922916;29;20358;-74
2022/09/06 00:26:14;;;;;;;;;;;15.90;99.90;;;;;;4918759;29;19930;-75
2022/09/06 00:28:40;;;;;;;;;;;15.90;99.90;;;;;;4916685;29;20037;-74
2022/09/06 00:31:13;;;;;;;;;;;15.90;99.90;;;;;;4919317;29;20284;-74
2022/09/06 00:33:39;;;;;;;;;;;15.90;99.90;;;;;;4919134;29;19918;-74
2022/09/06 00:36:05;;;;;;;;;;;15.80;99.90;;;;;;4919270;29;19945;-74
2022/09/06 00:38:30;;;;;;;;;;;15.70;99.90;;;;;;4919139;29;19922;-75
2022/09/06 00:40:57;;;;;;;;;;;15.70;99.90;;;;;;4929846;29;19919;-74
2022/09/06 00:43:22;;;;;;;;;;;15.70;99.90;;;;;;4941769;29;20427;-75
2022/09/06 00:45:48;;;;;;;;;;;15.60;99.90;;;;;;4920612;29;19934;-74
2022/09/06 00:48:14;;;;;;;;;;;15.60;99.90;;;;;;4918870;29;19982;-74
2022/09/06 00:50:40;;;;;;;;;;;15.60;99.90;;;;;;4916225;29;20933;-75
2022/09/06 00:53:05;;;;;;;;;;;15.60;99.90;;;;;;4918580;29;19919;-74
2022/09/06 00:55:31;;;;;;;;;;;15.60;99.90;;;;;;4918514;29;19923;-75
2022/09/06 00:57:57;;;;;;;;;;;15.60;99.90;;;;;;4905166;29;19926;-74
2022/09/06 01:00:22;;;;;;;;;;;15.70;99.90;;;;;;4915839;29;19929;-74
2022/09/06 01:02:48;;;;;;;;;;;15.70;99.90;;;;;;4919775;29;20343;-74
2022/09/06 01:05:14;;;;;;;;;;;15.60;99.90;;;;;;4918215;29;19958;-74
2022/09/06 01:07:46;;;;;;;;;;;15.50;99.90;;;;;;4920354;29;19993;-74
2022/09/06 01:10:29;;;;;;;;;;;15.50;99.90;;;;;;4918288;29;19919;-74
2022/09/06 01:12:57;;;;;;;;;;;15.50;99.90;;;;;;4918679;29;19919;-74
2022/09/06 01:15:34;;;;;;;;;;;15.50;99.90;;;;;;4918126;29;20010;-74
2022/09/06 01:18:00;;;;;;;;;;;15.50;99.90;;;;;;4914943;29;19919;-74
2022/09/06 01:20:40;;;;;;;;;;;15.50;99.90;;;;;;4917408;29;19922;-74
2022/09/06 01:23:19;;;;;;;;;;;15.40;99.90;;;;;;4917379;29;20013;-74
2022/09/06 01:26:03;;;;;;;;;;;15.40;99.90;;;;;;4919388;29;20410;-74
2022/09/06 01:28:30;;;;;;;;;;;15.30;99.90;;;;;;4918292;29;20434;-74
2022/09/06 01:31:22;;;;;;;;;;;15.30;99.90;;;;;;4922326;29;20194;-74
2022/09/06 01:33:57;;;;;;;;;;;15.20;99.90;;;;;;4910811;29;19954;-74
2022/09/06 01:36:24;;;;;;;;;;;15.10;99.90;;;;;;4915790;29;19919;-73
2022/09/06 01:38:50;;;;;;;;;;;15.10;99.90;;;;;;4919071;29;19946;-74
2022/09/06 01:41:15;;;;;;;;;;;15.10;99.90;;;;;;4920109;29;19965;-74
2022/09/06 01:43:42;;;;;;;;;;;15.00;99.90;;;;;;4921189;29;20383;-74
2022/09/06 01:46:27;;;;;;;;;;;15.00;99.90;;;;;;4919862;29;19973;-74
2022/09/06 01:48:52;;;;;;;;;;;15.00;99.90;;;;;;4902439;29;19930;-74
2022/09/06 01:51:24;;;;;;;;;;;15.00;99.90;;;;;;4907994;29;19941;-74
2022/09/06 01:53:49;;;;;;;;;;;14.90;99.90;;;;;;4915871;29;20014;-74
2022/09/06 01:56:24;;;;;;;;;;;14.90;99.90;;;;;;4899940;29;19919;-74
2022/09/06 01:58:49;;;;;;;;;;;14.90;99.90;;;;;;4917770;29;19993;-74
2022/09/06 02:01:35;;;;;;;;;;;14.80;99.90;;;;;;4908336;29;20073;-74
2022/09/06 02:04:12;;;;;;;;;;;14.80;99.90;;;;;;4918865;29;19944;-73
2022/09/06 02:06:42;;;;;;;;;;;14.70;99.90;;;;;;4918504;29;19989;-74
2022/09/06 02:09:10;;;;;;;;;;;14.70;99.90;;;;;;4892542;29;19922;-73
2022/09/06 02:11:39;;;;;;;;;;;14.70;99.90;;;;;;4919663;29;20347;-74
2022/09/06 02:14:07;;;;;;;;;;;14.70;99.90;;;;;;4912179;29;19919;-73
2022/09/06 02:16:34;;;;;;;;;;;14.70;99.90;;;;;;4919427;29;19937;-73
2022/09/06 02:19:04;;;;;;;;;;;14.60;99.90;;;;;;4897997;29;19919;-73
2022/09/06 02:21:32;;;;;;;;;;;14.60;99.90;;;;;;4916728;29;19919;-74
2022/09/06 02:24:00;;;;;;;;;;;14.70;99.90;;;;;;4915792;29;20104;-74
2022/09/06 02:26:27;;;;;;;;;;;14.70;99.90;;;;;;4902704;29;19927;-73
2022/09/06 02:28:53;;;;;;;;;;;14.70;99.90;;;;;;4901033;29;20343;-73
2022/09/06 02:31:28;;;;;;;;;;;14.70;99.90;;;;;;4919416;29;20129;-74
2022/09/06 02:33:54;;;;;;;;;;;14.70;99.90;;;;;;4918162;29;19923;-74
2022/09/06 02:36:20;;;;;;;;;;;14.70;99.90;;;;;;4928854;29;19938;-73
2022/09/06 02:38:45;;;;;;;;;;;14.70;99.90;;;;;;4917130;29;19934;-73
2022/09/06 02:41:12;;;;;;;;;;;14.80;99.90;;;;;;4920843;29;19919;-73
2022/09/06 02:43:38;;;;;;;;;;;14.90;99.90;;;;;;4923701;29;20350;-73
2022/09/06 02:46:04;;;;;;;;;;;14.80;99.90;;;;;;4925932;29;20122;-73
2022/09/06 02:48:30;;;;;;;;;;;14.70;99.90;;;;;;4921976;29;20002;-73
2022/09/06 02:50:55;;;;;;;;;;;14.70;99.90;;;;;;4913983;29;20366;-73
2022/09/06 02:53:21;;;;;;;;;;;14.70;99.90;;;;;;4924150;29;19923;-74
2022/09/06 02:55:47;;;;;;;;;;;14.70;99.90;;;;;;4923675;29;19925;-73
2022/09/06 02:58:13;;;;;;;;;;;14.60;99.90;;;;;;4910864;29;20014;-74
2022/09/06 03:00:39;;;;;;;;;;;14.60;99.90;;;;;;4904387;29;19925;-73
2022/09/06 03:03:04;;;;;;;;;;;14.60;99.90;;;;;;4917569;29;19941;-73
2022/09/06 03:05:30;;;;;;;;;;;14.50;99.90;;;;;;4921506;29;19934;-74
2022/09/06 03:07:56;;;;;;;;;;;14.50;99.90;;;;;;4925058;29;19969;-73
2022/09/06 03:10:21;;;;;;;;;;;14.40;99.90;;;;;;4924710;29;20057;-73
2022/09/06 03:12:47;;;;;;;;;;;14.30;99.90;;;;;;4917795;29;19929;-74
2022/09/06 03:15:14;;;;;;;;;;;14.20;99.90;;;;;;4922336;29;20391;-73
2022/09/06 03:17:39;;;;;;;;;;;14.10;99.90;;;;;;4924133;29;19954;-73
2022/09/06 03:20:06;;;;;;;;;;;14.00;99.90;;;;;;4922877;29;20005;-73
2022/09/06 03:22:31;;;;;;;;;;;13.90;99.90;;;;;;4924389;29;19918;-73
2022/09/06 03:24:57;;;;;;;;;;;13.90;99.90;;;;;;4921615;29;19930;-73
2022/09/06 03:27:23;;;;;;;;;;;13.80;99.90;;;;;;4918270;29;19942;-72
2022/09/06 03:29:48;;;;;;;;;;;13.80;99.90;;;;;;4924867;29;20337;-73
2022/09/06 03:32:14;;;;;;;;;;;13.80;99.90;;;;;;4922806;29;20005;-73
2022/09/06 03:34:39;;;;;;;;;;;13.80;99.90;;;;;;4924097;29;20327;-73
2022/09/06 03:37:05;;;;;;;;;;;13.70;99.90;;;;;;4920425;29;20593;-73
2022/09/06 03:39:30;;;;;;;;;;;13.70;99.90;;;;;;4919025;29;20520;-73
2022/09/06 03:41:56;;;;;;;;;;;13.70;99.90;;;;;;4922441;29;19919;-73
2022/09/06 03:44:22;;;;;;;;;;;13.70;99.90;;;;;;4924857;29;20272;-73
2022/09/06 03:46:47;;;;;;;;;;;13.80;99.90;;;;;;4913569;29;19915;-73
2022/09/06 03:49:13;;;;;;;;;;;13.90;99.90;;;;;;4919035;29;19973;-73
2022/09/06 03:51:38;;;;;;;;;;;14.00;99.90;;;;;;4911114;29;19927;-74
2022/09/06 03:54:04;;;;;;;;;;;14.00;99.90;;;;;;4924425;29;19988;-73
2022/09/06 03:56:29;;;;;;;;;;;14.10;99.90;;;;;;4916736;29;19922;-74
2022/09/06 03:58:55;;;;;;;;;;;14.20;99.90;;;;;;4923446;29;19919;-73
2022/09/06 04:01:20;;;;;;;;;;;14.30;99.90;;;;;;4921743;29;20302;-73
2022/09/06 04:03:46;;;;;;;;;;;14.30;99.90;;;;;;4904175;29;19919;-74
2022/09/06 04:06:11;;;;;;;;;;;14.20;99.90;;;;;;4887224;29;19927;-74
2022/09/06 04:08:37;;;;;;;;;;;14.30;99.90;;;;;;4923118;29;20315;-73
2022/09/06 04:11:03;;;;;;;;;;;14.40;99.90;;;;;;4920432;29;19914;-73
2022/09/06 04:13:29;;;;;;;;;;;14.40;99.90;;;;;;4905828;29;19919;-73
2022/09/06 04:15:55;;;;;;;;;;;14.50;99.90;;;;;;4921134;29;20690;-73
2022/09/06 04:18:20;;;;;;;;;;;14.50;99.90;;;;;;4920506;29;19915;-73
2022/09/06 04:20:47;;;;;;;;;;;14.40;99.90;;;;;;4911382;29;19981;-74
2022/09/06 04:23:13;;;;;;;;;;;14.50;99.90;;;;;;4923647;29;20287;-73
2022/09/06 04:25:38;;;;;;;;;;;14.50;99.90;;;;;;4903780;29;19926;-74
2022/09/06 04:28:04;;;;;;;;;;;14.60;99.90;;;;;;4923141;29;20311;-73
2022/09/06 04:30:29;;;;;;;;;;;14.50;99.90;;;;;;4921860;29;20310;-73
2022/09/06 04:32:55;;;;;;;;;;;14.50;99.90;;;;;;4920841;29;20017;-73
2022/09/06 04:35:20;;;;;;;;;;;14.50;99.90;;;;;;4900004;29;19930;-73
2022/09/06 04:37:46;;;;;;;;;;;14.50;99.90;;;;;;4922104;29;19986;-73
2022/09/06 04:40:12;;;;;;;;;;;14.40;99.90;;;;;;4906696;29;20174;-73
2022/09/06 04:42:37;;;;;;;;;;;14.40;99.90;;;;;;4921383;29;20398;-73
2022/09/06 04:45:04;;;;;;;;;;;14.40;99.90;;;;;;4920821;29;19931;-73
2022/09/06 04:47:30;;;;;;;;;;;14.40;99.90;;;;;;4922571;29;20366;-73
2022/09/06 04:49:56;;;;;;;;;;;14.30;99.90;;;;;;4920955;29;19941;-73
2022/09/06 04:52:22;;;;;;;;;;;14.30;99.90;;;;;;4915949;29;20424;-73
2022/09/06 04:54:47;;;;;;;;;;;14.20;99.90;;;;;;4922026;29;19919;-74
2022/09/06 04:57:13;;;;;;;;;;;14.10;99.90;;;;;;4919375;29;19947;-73
2022/09/06 04:59:38;;;;;;;;;;;14.00;99.90;;;;;;4921306;29;19967;-73
2022/09/06 05:02:04;;;;;;;;;;;13.90;99.90;;;;;;4917894;29;19958;-73
2022/09/06 05:04:29;;;;;;;;;;;13.90;99.90;;;;;;4910705;29;20434;-74
2022/09/06 05:06:59;;;;;;;;;;;13.90;99.90;;;;;;4919502;29;19918;-74
2022/09/06 05:09:24;;;;;;;;;;;13.90;99.90;;;;;;4922054;29;19922;-73
2022/09/06 05:11:50;;;;;;;;;;;13.90;99.90;;;;;;4918609;29;19918;-73
2022/09/06 05:14:15;;;;;;;;;;;14.00;99.90;;;;;;4918117;29;20354;-73
2022/09/06 05:16:41;;;;;;;;;;;14.00;99.90;;;;;;4912463;29;19919;-73
2022/09/06 05:19:06;;;;;;;;;;;14.10;99.90;;;;;;4917522;29;19919;-73
2022/09/06 05:21:32;;;;;;;;;;;14.20;99.90;;;;;;4917387;29;20109;-73
2022/09/06 05:23:57;;;;;;;;;;;14.30;99.90;;;;;;4922996;29;19938;-73
2022/09/06 05:26:23;;;;;;;;;;;14.50;99.90;;;;;;4917821;29;19962;-74
2022/09/06 05:28:48;;;;;;;;;;;14.70;99.90;;;;;;4913757;29;19919;-73
2022/09/06 05:31:34;;;;;;;;;;;14.90;99.90;;;;;;4920519;29;19962;-74
2022/09/06 05:34:00;;;;;;;;;;;15.00;99.90;;;;;;4920506;29;19919;-74
2022/09/06 05:36:26;;;;;;;;;;;15.10;99.90;;;;;;4920508;29;19919;-73
2022/09/06 05:38:52;;;;;;;;;;;15.20;99.90;;;;;;4918922;29;19941;-73
2022/09/06 05:41:18;;;;;;;;;;;15.20;99.90;;;;;;4920926;29;19953;-74
2022/09/06 05:43:44;;;;;;;;;;;15.30;99.90;;;;;;4920023;29;20029;-73
2022/09/06 05:46:09;;;;;;;;;;;15.50;99.90;;;;;;4922160;29;19930;-74
2022/09/06 05:48:35;;;;;;;;;;;15.60;99.90;;;;;;4921411;29;19919;-73
2022/09/06 05:51:01;;;;;;;;;;;15.70;99.90;;;;;;4916572;29;20306;-73
2022/09/06 05:53:32;;;;;;;;;;;15.80;99.90;;;;;;4902638;29;20576;-74
2022/09/06 05:55:57;;;;;;;;;;;15.80;99.90;;;;;;4920107;29;20023;-73
2022/09/06 05:58:23;;;;;;;;;;;15.80;99.90;;;;;;4917122;29;20224;-74
2022/09/06 06:00:48;;;;;;;;;;;15.80;99.90;;;;;;4916588;29;19919;-74
2022/09/06 06:03:14;;;;;;;;;;;15.90;99.90;;;;;;4918024;29;19991;-73
2022/09/06 06:05:39;;;;;;;;;;;15.80;99.90;;;;;;4920288;29;20440;-74
2022/09/06 06:08:05;;;;;;;;;;;15.70;99.90;;;;;;4921270;29;19919;-74
2022/09/06 06:10:30;;;;;;;;;;;15.60;99.90;;;;;;4922150;29;19941;-73
2022/09/06 06:12:56;;;;;;;;;;;15.50;99.90;;;;;;4925927;29;19918;-74
2022/09/06 06:15:22;;;;;;;;;;;15.60;99.90;;;;;;4905573;29;19958;-73
2022/09/06 06:17:47;;;;;;;;;;;15.60;99.90;;;;;;4923962;29;19926;-74
2022/09/06 06:20:13;;;;;;;;;;;15.60;99.90;;;;;;4922471;29;20565;-73
2022/09/06 06:22:38;;;;;;;;;;;15.60;99.90;;;;;;4922388;29;19919;-73
2022/09/06 06:25:04;;;;;;;;;;;15.60;99.90;;;;;;4919425;29;19927;-74
2022/09/06 06:27:29;;;;;;;;;;;15.60;99.90;;;;;;4899717;29;20006;-73
2022/09/06 06:29:55;;;;;;;;;;;15.60;99.90;;;;;;4921230;29;19921;-72
2022/09/06 06:32:20;;;;;;;;;;;15.70;99.90;;;;;;4904819;29;19980;-73
2022/09/06 06:34:47;;;;;;;;;;;15.80;99.90;;;;;;4922435;29;19942;-73
2022/09/06 06:37:12;;;;;;;;;;;16.00;99.90;;;;;;4923023;29;20013;-73
2022/09/06 06:39:38;;;;;;;;;;;16.20;99.90;;;;;;4920578;29;19926;-74
2022/09/06 06:42:03;;;;;;;;;;;16.40;99.90;;;;;;4911047;29;19926;-73
2022/09/06 06:44:29;;;;;;;;;;;16.50;99.90;;;;;;4923599;29;19930;-73
2022/09/06 06:46:56;;;;;;;;;;;16.70;99.90;;;;;;4920474;29;19930;-73
2022/09/06 06:49:22;;;;;;;;;;;16.80;99.90;;;;;;4921849;29;19925;-74
2022/09/06 06:51:48;;;;;;;;;;;16.90;99.90;;;;;;4919133;29;19923;-73
2022/09/06 06:54:13;;;;;;;;;;;16.90;99.90;;;;;;4921360;29;19966;-74
2022/09/06 06:56:44;;;;;;;;;;;16.90;99.90;;;;;;4916438;29;19919;-73
2022/09/06 06:59:10;;;;;;;;;;;17.00;99.90;;;;;;4898443;29;20022;-73
2022/09/06 07:01:36;;;;;;;;;;;16.90;99.90;;;;;;4916495;29;19929;-74
2022/09/06 07:04:02;;;;;;;;;;;17.00;99.90;;;;;;4906800;29;19919;-73
2022/09/06 07:06:28;;;;;;;;;;;17.00;99.90;;;;;;4908076;29;19971;-73
2022/09/06 07:08:57;;;;;;;;;;;17.10;99.90;;;;;;4911787;29;21319;-73
2022/09/06 07:11:22;;;;;;;;;;;17.10;99.90;;;;;;4916230;29;20788;-74
2022/09/06 07:13:48;;;;;;;;;;;17.30;99.90;;;;;;4921817;29;20024;-73
2022/09/06 07:16:16;;;;;;;;;;;17.40;99.90;;;;;;4915829;29;19946;-73
2022/09/06 07:18:42;;;;;;;;;;;17.60;99.90;;;;;;4917749;29;20298;-74
2022/09/06 07:21:14;;;;;;;;;;;17.70;99.90;;;;;;4920242;29;19923;-74
2022/09/06 07:23:40;;;;;;;;;;;17.70;99.90;;;;;;4920648;29;19931;-74
2022/09/06 07:26:06;;;;;;;;;;;17.80;99.90;;;;;;4921408;29;19986;-73
2022/09/06 07:28:32;;;;;;;;;;;17.80;99.90;;;;;;4902173;29;20033;-74
2022/09/06 07:30:57;;;;;;;;;;;18.00;99.90;;;;;;4923193;29;20302;-75
2022/09/06 07:33:23;;;;;;;;;;;18.10;99.90;;;;;;4905574;29;20360;-76
2022/09/06 07:35:55;;;;;;;;;;;18.20;99.90;;;;;;4921307;29;19926;-74
2022/09/06 07:38:21;;;;;;;;;;;18.20;99.90;;;;;;4918839;29;19925;-77
2022/09/06 07:40:52;;;;;;;;;;;18.60;99.90;;;;;;4916227;29;19918;-75
2022/09/06 07:43:17;;;;;;;;;;;18.70;99.90;;;;;;4904226;29;21807;-77
2022/09/06 07:45:43;;;;;;;;;;;18.60;99.90;;;;;;4913512;29;19926;-77
2022/09/06 07:48:08;;;;;;;;;;;19.30;99.90;;;;;;4916037;29;20390;-81
2022/09/06 07:50:34;;;;;;;;;;;21.30;99.90;;;;;;4842693;29;2076651;-77
2022/09/06 07:53:03;;;;;;;;;;;24.40;99.90;;;;;;4912833;29;19926;-81
2022/09/06 07:55:29;;;;;;;;;;;26.60;99.90;;;;;;4913910;29;19918;-79
2022/09/06 07:57:54;;;;;;;;;;;28.40;99.90;;;;;;4923538;29;19982;-79
2022/09/06 08:00:20;;;;;;;;;;;30.10;99.90;;;;;;4924033;29;20489;-77
2022/09/06 08:02:45;;;;;;;;;;;31.40;97.70;;;;;;4920999;29;19958;-76
2022/09/06 08:05:11;;;;;;;;;;;31.10;94.90;;;;;;4915882;29;19923;-74
2022/09/06 08:07:36;;;;;;;;;;;29.60;94.60;;;;;;4912292;29;19923;-74
2022/09/06 08:10:02;;;;;;;;;;;30.90;96.00;;;;;;4912308;29;19930;-76
2022/09/06 08:12:28;;;;;;;;;;;31.20;96.60;;;;;;4919553;29;19919;-79
2022/09/06 08:14:53;;;;;;;;;;;30.60;94.20;;;;;;4925459;29;19918;-73
2022/09/06 08:17:19;;;;;;;;;;;28.00;97.70;;;;;;4916600;29;19925;-74
2022/09/06 08:19:44;;;;;;;;;;;26.00;99.90;;;;;;4913681;29;19997;-75
2022/09/06 08:22:10;;;;;;;;;;;24.60;99.90;;;;;;4918454;29;19934;-74
2022/09/06 08:24:36;;;;;;;;;;;23.60;99.90;;;;;;4909151;29;19965;-73
2022/09/06 08:27:02;;;;;;;;;;;22.90;99.90;;;;;;4909527;29;19999;-73
2022/09/06 08:29:27;;;;;;;;;;;22.30;99.90;;;;;;4908916;29;19930;-74
2022/09/06 08:31:53;;;;;;;;;;;21.90;99.90;;;;;;4918698;29;19918;-73
2022/09/06 08:34:19;;;;;;;;;;;21.70;99.90;;;;;;4921972;29;19928;-73
2022/09/06 08:36:44;;;;;;;;;;;22.00;99.90;;;;;;4921373;29;20065;-73
2022/09/06 08:39:10;;;;;;;;;;;22.30;99.90;;;;;;4918320;29;19969;-73
2022/09/06 08:41:36;;;;;;;;;;;22.00;99.90;;;;;;4919303;29;19934;-74
2022/09/06 08:44:02;;;;;;;;;;;21.70;99.90;;;;;;4916059;29;19950;-73
2022/09/06 08:46:31;;;;;;;;;;;21.50;99.90;;;;;;4911024;29;19922;-74
2022/09/06 08:48:56;;;;;;;;;;;22.10;99.90;;;;;;4920702;29;19919;-73
2022/09/06 08:51:31;;;;;;;;;;;22.40;99.90;;;;;;4906165;29;22457;-74
2022/09/06 08:54:02;;;;;;;;;;;22.70;99.90;;;;;;4906773;29;19950;-74
2022/09/06 08:56:31;;;;;;;;;;;23.00;99.90;;;;;;4904707;29;20038;-73
2022/09/06 08:59:07;;;;;;;;;;;23.60;99.90;;;;;;4900919;29;20079;-73
2022/09/06 09:01:40;;;;;;;;;;;24.10;99.90;;;;;;4901814;29;19930;-72
2022/09/06 09:04:11;;;;;;;;;;;24.30;99.90;;;;;;4903200;29;20311;-73
2022/09/06 09:06:37;;;;;;;;;;;24.50;99.90;;;;;;4907758;29;19926;-74
2022/09/06 09:09:06;;;;;;;;;;;24.90;99.90;;;;;;4913645;29;19926;-74
2022/09/06 09:11:34;;;;;;;;;;;25.10;99.90;;;;;;4912811;29;20018;-74
2022/09/06 09:14:12;;;;;;;;;;;25.40;99.90;;;;;;4878496;29;20010;-73
2022/09/06 09:16:38;;;;;;;;;;;25.50;99.90;;;;;;4903883;29;19926;-73
2022/09/06 09:19:04;;;;;;;;;;;26.10;99.90;;;;;;4907732;29;19998;-73
2022/09/06 09:21:31;;;;;;;;;;;26.50;99.90;;;;;;4917776;29;19918;-73
2022/09/06 09:24:00;;;;;;;;;;;25.90;99.90;;;;;;4918709;29;20148;-73
2022/09/06 09:26:29;;;;;;;;;;;25.10;99.90;;;;;;4574992;29;10000503;-73
2022/09/06 09:29:06;;;;;;;;;;;24.40;99.90;;;;;;4911899;29;19947;-73
2022/09/06 09:31:38;;;;;;;;;;;23.70;99.90;;;;;;4912150;29;20384;-72
2022/09/06 09:34:04;;;;;;;;;;;23.00;99.90;;;;;;4916420;29;19973;-73
2022/09/06 09:36:30;;;;;;;;;;;22.60;99.90;;;;;;4901542;29;20151;-73
2022/09/06 09:38:57;;;;;;;;;;;22.50;99.90;;;;;;4915821;29;19942;-75
2022/09/06 09:41:33;;;;;;;;;;;22.50;99.90;;;;;;4919595;28;20041;-73
2022/09/06 09:44:03;;;;;;;;;;;22.50;99.90;;;;;;4900966;29;19923;-73
2022/09/06 09:46:31;;;;;;;;;;;22.50;99.90;;;;;;4900983;29;20299;-73
2022/09/06 09:49:05;;;;;;;;;;;22.70;99.90;;;;;;4915453;29;19919;-74
2022/09/06 09:51:32;;;;;;;;;;;23.00;99.90;;;;;;4924856;29;20780;-73
2022/09/06 09:54:02;;;;;;;;;;;23.30;99.90;;;;;;4916673;29;20021;-73
2022/09/06 09:56:42;;;;;;;;;;;23.50;99.90;;;;;;4913460;29;19926;-73
2022/09/06 09:59:26;;;;;;;;;;;23.30;99.90;;;;;;4894303;29;19985;-73
2022/09/06 10:01:56;;;;;;;;;;;22.90;99.90;;;;;;4918558;29;20434;-73
2022/09/06 10:04:28;;;;;;;;;;;22.60;99.90;;;;;;4921033;29;19919;-72
2022/09/06 10:07:05;;;;;;;;;;;22.40;99.90;;;;;;4897218;29;19958;-72
2022/09/06 10:09:33;;;;;;;;;;;22.30;99.90;;;;;;4915490;29;19926;-72
2022/09/06 10:12:00;;;;;;;;;;;22.10;99.90;;;;;;4909508;29;20314;-74
2022/09/06 10:14:39;;;;;;;;;;;22.30;99.90;;;;;;4910559;29;20029;-73
2022/09/06 10:17:05;;;;;;;;;;;22.20;99.90;;;;;;4913783;29;20010;-72
2022/09/06 10:19:30;;;;;;;;;;;22.20;99.90;;;;;;4913635;29;20005;-73
2022/09/06 10:22:11;;;;;;;;;;;22.30;99.90;;;;;;4897204;29;19918;-73
2022/09/06 10:24:36;;;;;;;;;;;22.30;99.90;;;;;;4903724;29;19938;-72
2022/09/06 10:27:02;;;;;;;;;;;22.40;99.90;;;;;;4908730;29;19979;-72
2022/09/06 10:29:33;;;;;;;;;;;22.20;99.90;;;;;;4899416;29;20819;-72
2022/09/06 10:31:59;;;;;;;;;;;22.20;99.90;;;;;;4908018;29;19922;-72
2022/09/06 10:34:24;;;;;;;;;;;22.30;99.90;;;;;;4908783;29;19957;-73
2022/09/06 10:37:19;;;;;;;;;;;22.20;99.90;;;;;;4915831;29;20112;-74
2022/09/06 10:39:49;;;;;;;;;;;22.20;99.90;;;;;;4901214;29;20385;-73
2022/09/06 10:42:23;;;;;;;;;;;22.20;99.90;;;;;;4912232;29;21394;-74
2022/09/06 10:45:07;;;;;;;;;;;22.30;99.90;;;;;;4921550;29;19953;-73
2022/09/06 10:47:37;;;;;;;;;;;22.20;99.90;;;;;;4921720;29;19919;-73
2022/09/06 10:50:04;;;;;;;;;;;22.10;99.90;;;;;;4913517;29;19939;-73
2022/09/06 10:52:36;;;;;;;;;;;22.20;99.90;;;;;;4919487;29;19923;-73
2022/09/06 10:55:04;;;;;;;;;;;22.40;99.90;;;;;;4920172;29;19998;-73
2022/09/06 10:57:42;;;;;;;;;;;22.70;99.90;;;;;;4923459;29;19961;-73
2022/09/06 11:00:15;;;;;;;;;;;22.60;99.90;;;;;;4918283;29;19922;-73
2022/09/06 11:02:47;;;;;;;;;;;22.50;99.90;;;;;;4917547;29;19953;-73
2022/09/06 11:05:16;;;;;;;;;;;22.30;99.90;;;;;;4926160;29;19923;-73
2022/09/06 11:07:43;;;;;;;;;;;22.30;99.90;;;;;;4905966;29;20084;-73
2022/09/06 11:10:19;;;;;;;;;;;22.10;99.90;;;;;;4924291;29;19975;-73
2022/09/06 11:12:57;;;;;;;;;;;22.10;99.90;;;;;;4922215;29;20336;-72
2022/09/06 11:15:24;;;;;;;;;;;22.10;99.90;;;;;;4924619;29;19919;-72
2022/09/06 11:17:59;;;;;;;;;;;22.20;99.90;;;;;;4913457;29;19945;-72
2022/09/06 11:20:24;;;;;;;;;;;22.30;99.90;;;;;;4917198;29;19930;-72
2022/09/06 11:22:50;;;;;;;;;;;22.70;99.90;;;;;;4918222;29;20095;-74
2022/09/06 11:25:26;;;;;;;;;;;22.70;99.90;;;;;;4925254;29;19926;-73
2022/09/06 11:27:56;;;;;;;;;;;22.90;99.90;;;;;;4940668;29;19914;-73
2022/09/06 11:30:24;;;;;;;;;;;23.00;99.90;;;;;;4941702;29;20369;-73
2022/09/06 11:32:50;;;;;;;;;;;23.70;99.90;;;;;;4571726;29;10000278;-72
2022/09/06 11:35:20;;;;;;;;;;;24.20;99.90;;;;;;4928221;29;19918;-72
2022/09/06 11:37:49;;;;;;;;;;;24.40;99.90;;;;;;4916139;29;20006;-72
2022/09/06 11:40:18;;;;;;;;;;;24.50;99.90;;;;;;4906791;29;19915;-72
2022/09/06 11:42:44;;;;;;;;;;;25.10;99.90;;;;;;4923545;29;20303;-73
2022/09/06 11:45:09;;;;;;;;;;;25.60;99.90;;;;;;4910520;29;19922;-73
2022/09/06 11:47:39;;;;;;;;;;;25.60;99.90;;;;;;4921323;29;19918;-73
2022/09/06 11:50:17;;;;;;;;;;;25.20;99.90;;;;;;4919008;29;19945;-72
2022/09/06 11:52:49;;;;;;;;;;;25.00;99.90;;;;;;4923323;29;19926;-73
2022/09/06 11:55:16;;;;;;;;;;;24.50;99.90;;;;;;4940087;29;19942;-72
2022/09/06 11:57:42;;;;;;;;;;;24.50;99.90;;;;;;4919234;29;20322;-73
2022/09/06 12:00:16;;;;;;;;;;;24.80;99.90;;;;;;4923018;29;19926;-73
2022/09/06 12:02:43;;;;;;;;;;;25.10;99.90;;;;;;4921581;29;19919;-74
2022/09/06 12:05:10;;;;;;;;;;;25.30;99.90;;;;;;4899070;29;19938;-73
2022/09/06 12:07:37;;;;;;;;;;;25.30;99.90;;;;;;4919119;29;20015;-72
2022/09/06 12:10:22;;;;;;;;;;;25.20;99.90;;;;;;4920417;29;19990;-74
2022/09/06 12:12:49;;;;;;;;;;;25.00;99.90;;;;;;4919375;29;20201;-74
2022/09/06 12:15:28;;;;;;;;;;;24.50;99.90;;;;;;4909812;29;19930;-73
2022/09/06 12:17:54;;;;;;;;;;;24.60;99.90;;;;;;4908676;29;19919;-73
2022/09/06 12:20:38;;;;;;;;;;;24.90;99.90;;;;;;4906947;29;19974;-72
2022/09/06 12:23:04;;;;;;;;;;;25.10;99.90;;;;;;4887418;29;20010;-72
2022/09/06 12:25:33;;;;;;;;;;;24.80;99.90;;;;;;4915427;29;20018;-73
2022/09/06 12:28:02;;;;;;;;;;;24.60;99.90;;;;;;4920404;29;20017;-73
2022/09/06 12:30:40;;;;;;;;;;;24.20;99.90;;;;;;4918805;29;20021;-73
2022/09/06 12:33:10;;;;;;;;;;;24.10;99.90;;;;;;4918041;29;20318;-73
2022/09/06 12:35:36;;;;;;;;;;;24.10;99.90;;;;;;4916778;29;19922;-72
2022/09/06 12:38:02;;;;;;;;;;;24.20;99.90;;;;;;4918611;29;19941;-72
2022/09/06 12:40:30;;;;;;;;;;;24.60;99.90;;;;;;4900677;29;19922;-72
2022/09/06 12:42:56;;;;;;;;;;;25.30;99.90;;;;;;4923033;29;19915;-72
2022/09/06 12:45:22;;;;;;;;;;;25.90;99.90;;;;;;4904395;29;19978;-75
2022/09/06 12:47:49;;;;;;;;;;;25.80;99.90;;;;;;4892505;29;20021;-72
2022/09/06 12:50:17;;;;;;;;;;;25.50;99.90;;;;;;4921392;29;20230;-73
2022/09/06 12:52:44;;;;;;;;;;;25.70;99.90;;;;;;4919542;29;20426;-72
2022/09/06 12:55:33;;;;;;;;;;;26.20;99.90;;;;;;4919496;29;19962;-73
2022/09/06 12:58:01;;;;;;;;;;;25.90;99.90;;;;;;4916525;29;20029;-75
2022/09/06 13:00:31;;;;;;;;;;;25.70;99.90;;;;;;4922646;29;20044;-73
2022/09/06 13:03:02;;;;;;;;;;;25.40;99.90;;;;;;4919984;29;19925;-73
2022/09/06 13:05:28;;;;;;;;;;;25.30;99.90;;;;;;4918309;29;19958;-73
2022/09/06 13:07:57;;;;;;;;;;;25.00;99.90;;;;;;4918251;29;20050;-73
2022/09/06 13:10:24;;;;;;;;;;;24.90;99.90;;;;;;4915341;29;20681;-73
2022/09/06 13:12:51;;;;;;;;;;;24.90;99.90;;;;;;4901393;29;20481;-74
2022/09/06 13:15:27;;;;;;;;;;;25.10;99.90;;;;;;4906291;29;19941;-72
2022/09/06 13:17:54;;;;;;;;;;;25.10;99.90;;;;;;4929769;29;19942;-72
2022/09/06 13:20:21;;;;;;;;;;;25.10;99.90;;;;;;4928124;29;20350;-73
2022/09/06 13:22:49;;;;;;;;;;;24.90;99.90;;;;;;4899285;29;21811;-74
2022/09/06 13:25:15;;;;;;;;;;;24.60;99.90;;;;;;4919403;29;20457;-73
2022/09/06 13:27:44;;;;;;;;;;;24.70;99.90;;;;;;4899212;29;19966;-73
2022/09/06 13:30:28;;;;;;;;;;;25.00;99.90;;;;;;4917633;29;19918;-74
2022/09/06 13:32:54;;;;;;;;;;;25.30;99.90;;;;;;4914072;29;19933;-72
2022/09/06 13:35:23;;;;;;;;;;;25.20;99.90;;;;;;4919529;29;19919;-72
2022/09/06 13:37:49;;;;;;;;;;;25.30;99.90;;;;;;4918830;29;19926;-73
2022/09/06 13:40:41;;;;;;;;;;;25.40;99.90;;;;;;4917206;29;19948;-72
2022/09/06 13:43:10;;;;;;;;;;;25.30;99.90;;;;;;4902751;29;19946;-72
2022/09/06 13:45:36;;;;;;;;;;;25.60;99.90;;;;;;4913110;29;19939;-73
2022/09/06 13:48:02;;;;;;;;;;;25.50;99.90;;;;;;4909899;29;19919;-73
2022/09/06 13:50:27;;;;;;;;;;;25.10;99.90;;;;;;4901654;29;20504;-73
2022/09/06 13:52:53;;;;;;;;;;;24.90;99.90;;;;;;4923216;29;19915;-73
2022/09/06 13:55:20;;;;;;;;;;;24.60;99.90;;;;;;4919557;29;19952;-72
2022/09/06 13:57:46;;;;;;;;;;;24.80;99.90;;;;;;4905956;29;20007;-72
2022/09/06 14:00:12;;;;;;;;;;;24.80;99.90;;;;;;4920808;29;19923;-72
2022/09/06 14:02:42;;;;;;;;;;;24.50;99.90;;;;;;4922377;29;20028;-73
2022/09/06 14:05:07;;;;;;;;;;;24.40;99.90;;;;;;4919511;29;19930;-73
2022/09/06 14:07:33;;;;;;;;;;;24.50;99.90;;;;;;4901899;29;20335;-72
2022/09/06 14:10:02;;;;;;;;;;;24.70;99.90;;;;;;4913581;29;19918;-73
2022/09/06 14:12:27;;;;;;;;;;;25.00;99.90;;;;;;4915942;29;19941;-72
2022/09/06 14:14:53;;;;;;;;;;;24.80;99.90;;;;;;4919202;29;20261;-73
2022/09/06 14:17:18;;;;;;;;;;;24.40;99.90;;;;;;4918412;29;19918;-73
2022/09/06 14:19:44;;;;;;;;;;;23.90;99.90;;;;;;4908720;29;19977;-73
2022/09/06 14:22:10;;;;;;;;;;;23.50;99.90;;;;;;4908175;29;19942;-72